Time;durP1;ratioP1;P1;durP2;ratioP2;P2;SDS_P1;SDS_P2;PMS_P1;PMS_P2;Temp;Humidity;BMP_temperature;BMP_pressure;BME280_temperature;BME280_humidity;BME280_pressure;Samples;Min_cycle;Max_cycle;Signal;HPM_P1;HPM_P2
2022/02/04 00:22:36;;;;;;;13.20;11.45;;;9.90;99.90;;;;;;5116754;27;20226;-65
2022/02/04 00:25:08;;;;;;;17.00;12.98;;;9.90;99.90;;;;;;5123580;27;20230;-65
2022/02/04 00:27:35;;;;;;;16.05;11.73;;;9.90;99.90;;;;;;5133747;27;20215;-65
2022/02/04 00:30:08;;;;;;;16.25;13.43;;;10.00;99.90;;;;;;5134105;27;20253;-65
2022/02/04 00:32:36;;;;;;;15.27;12.43;;;10.00;99.90;;;;;;5135343;27;20642;-65
2022/02/04 00:35:13;;;;;;;14.68;13.18;;;10.00;99.90;;;;;;5135012;27;20223;-65
2022/02/04 00:37:55;;;;;;;18.33;14.45;;;9.90;99.90;;;;;;5122785;27;20242;-65
2022/02/04 00:40:24;;;;;;;14.65;11.65;;;10.00;99.90;;;;;;5134876;27;20218;-65
2022/02/04 00:42:54;;;;;;;15.27;12.57;;;10.00;99.90;;;;;;5133864;27;20218;-65
2022/02/04 00:45:26;;;;;;;16.65;13.10;;;10.00;99.90;;;;;;5130154;27;20214;-65
2022/02/04 00:47:59;;;;;;;17.73;14.30;;;10.00;99.90;;;;;;5135210;27;20298;-64
2022/02/04 00:50:31;;;;;;;14.75;12.65;;;10.00;99.90;;;;;;5132046;27;20291;-64
2022/02/04 00:53:09;;;;;;;14.38;12.13;;;10.00;99.90;;;;;;5134034;27;20222;-64
2022/02/04 00:55:43;;;;;;;17.23;14.30;;;10.00;99.90;;;;;;5121420;27;20226;-64
2022/02/04 01:13:09;;;;;;;17.65;12.90;;;10.00;99.90;;;;;;5134644;27;20245;-65
2022/02/04 01:26:03;;;;;;;15.48;12.90;;;10.00;99.90;;;;;;5134580;27;20271;-64
2022/02/04 01:28:30;;;;;;;13.80;12.07;;;10.00;99.90;;;;;;5134012;27;20214;-65
2022/02/04 01:30:58;;;;;;;20.70;15.57;;;10.00;99.90;;;;;;5133778;27;20238;-64
2022/02/04 01:33:25;;;;;;;18.67;15.95;;;10.00;99.90;;;;;;5133978;27;20232;-65
2022/02/04 01:35:54;;;;;;;18.65;15.07;;;10.00;99.90;;;;;;5134359;27;20214;-65
2022/02/04 01:38:21;;;;;;;17.65;15.15;;;10.00;99.90;;;;;;5133322;27;20218;-65
2022/02/04 01:40:48;;;;;;;16.13;13.95;;;10.00;99.90;;;;;;5120714;27;20237;-65
2022/02/04 01:43:21;;;;;;;16.88;14.80;;;10.00;99.90;;;;;;5128993;27;20665;-65
2022/02/04 01:45:49;;;;;;;18.92;15.50;;;10.00;99.90;;;;;;5133232;27;20222;-65
2022/02/04 01:48:16;;;;;;;24.35;17.58;;;10.00;99.90;;;;;;5133013;27;20226;-65
2022/02/04 01:50:43;;;;;;;17.05;14.70;;;10.00;99.90;;;;;;5120323;27;20222;-65
2022/02/04 01:53:09;;;;;;;17.92;15.15;;;10.00;99.90;;;;;;5133723;27;20562;-64
2022/02/04 01:55:36;;;;;;;19.35;15.20;;;10.00;99.90;;;;;;5133947;27;20222;-64
2022/02/04 01:58:03;;;;;;;18.95;14.90;;;10.00;99.90;;;;;;5133126;27;20222;-64
2022/02/04 02:00:31;;;;;;;16.92;14.43;;;10.00;99.90;;;;;;5133135;27;20218;-64
2022/02/04 02:02:58;;;;;;;19.27;15.70;;;10.00;99.90;;;;;;5133604;27;20240;-65
2022/02/04 02:05:25;;;;;;;19.80;15.95;;;10.00;99.90;;;;;;5130040;27;20226;-64
2022/02/04 02:07:52;;;;;;;16.55;14.57;;;10.00;99.90;;;;;;5133646;27;20683;-64
2022/02/04 02:10:20;;;;;;;17.23;14.38;;;10.00;99.90;;;;;;5133237;27;20226;-64
2022/02/04 02:12:57;;;;;;;16.10;14.10;;;10.00;99.90;;;;;;5133628;27;20225;-65
2022/02/04 02:15:30;;;;;;;18.50;15.40;;;10.00;99.90;;;;;;5128141;27;20679;-65
2022/02/04 02:46:03;;;;;;;22.88;16.48;;;9.90;99.90;;;;;;5110547;27;20219;-65
2022/02/04 02:48:55;;;;;;;21.25;15.70;;;9.90;99.90;;;;;;5130877;27;20303;-64
2022/02/04 02:51:55;;;;;;;20.08;16.05;;;9.90;99.90;;;;;;5128810;27;20238;-64
2022/02/04 02:55:00;;;;;;;17.52;15.00;;;9.80;99.90;;;;;;5122960;27;20299;-64
2022/02/04 02:57:55;;;;;;;17.00;14.32;;;9.90;99.90;;;;;;5132862;27;20215;-65
2022/02/04 03:00:42;;;;;;;20.48;16.75;;;9.90;99.90;;;;;;5133921;27;20230;-65
2022/02/04 03:03:11;;;;;;;19.75;15.40;;;9.90;99.90;;;;;;5132420;27;20225;-65
2022/02/04 03:05:38;;;;;;;21.55;17.30;;;9.90;99.90;;;;;;5132506;27;20211;-65
2022/02/04 03:08:05;;;;;;;19.48;15.65;;;9.90;99.90;;;;;;5137208;27;20249;-64
2022/02/04 03:10:32;;;;;;;20.25;16.05;;;9.90;99.90;;;;;;5136447;27;20230;-65
2022/02/04 03:13:00;;;;;;;19.88;15.48;;;9.90;99.90;;;;;;5136702;27;20237;-66
2022/02/04 03:15:27;;;;;;;20.92;15.43;;;9.90;99.90;;;;;;5136269;27;20218;-65
2022/02/04 03:18:00;;;;;;;19.73;16.55;;;9.80;99.90;;;;;;5136444;27;20224;-65
2022/02/04 03:20:27;;;;;;;19.92;15.27;;;9.80;99.90;;;;;;5138364;27;20222;-65
2022/02/04 03:22:55;;;;;;;15.52;13.52;;;9.80;99.90;;;;;;5125865;27;20233;-64
2022/02/04 03:25:24;;;;;;;17.65;15.23;;;9.90;99.90;;;;;;5136551;27;20222;-65
2022/02/04 03:27:54;;;;;;;19.23;15.35;;;9.90;99.90;;;;;;5136655;27;20242;-65
2022/02/04 03:30:27;;;;;;;20.15;16.67;;;9.80;99.90;;;;;;5135848;27;20222;-65
2022/02/04 03:32:57;;;;;;;23.65;17.63;;;9.90;99.90;;;;;;5136624;27;20748;-65
2022/02/04 03:35:25;;;;;;;20.50;17.25;;;9.90;99.90;;;;;;5136187;27;20683;-65
2022/02/04 03:37:55;;;;;;;23.33;16.40;;;9.90;99.90;;;;;;5136519;27;20218;-65
2022/02/04 03:40:22;;;;;;;20.77;16.83;;;9.80;99.90;;;;;;5135967;27;20234;-66
2022/02/04 03:42:50;;;;;;;17.00;14.75;;;9.80;99.90;;;;;;5135353;27;20222;-66
2022/02/04 03:45:18;;;;;;;20.15;16.35;;;9.90;99.90;;;;;;5130867;27;20222;-65
2022/02/04 03:47:47;;;;;;;19.60;15.77;;;9.80;99.90;;;;;;5136423;27;20218;-64
2022/02/04 03:50:14;;;;;;;24.75;17.83;;;9.80;99.90;;;;;;5135963;27;20222;-64
2022/02/04 03:52:41;;;;;;;23.23;17.25;;;9.80;99.90;;;;;;5132254;27;20222;-65
2022/02/04 03:55:09;;;;;;;19.52;15.95;;;9.80;99.90;;;;;;5136290;27;20227;-65
2022/02/04 03:57:36;;;;;;;19.13;15.82;;;9.80;99.90;;;;;;5135548;27;20218;-65
2022/02/04 04:00:07;;;;;;;20.95;16.38;;;9.80;99.90;;;;;;5136066;27;20230;-64
2022/02/04 04:02:34;;;;;;;21.35;16.17;;;9.80;99.90;;;;;;5135060;27;20230;-63
2022/02/04 04:05:02;;;;;;;20.88;16.05;;;9.80;99.90;;;;;;5135709;27;20230;-64
2022/02/04 04:07:30;;;;;;;19.33;15.02;;;9.80;99.90;;;;;;5135670;27;20253;-65
2022/02/04 04:10:04;;;;;;;19.83;15.93;;;9.80;99.90;;;;;;5135751;27;20302;-65
2022/02/04 04:12:31;;;;;;;21.63;16.17;;;9.80;99.90;;;;;;5134376;27;20223;-66
2022/02/04 04:15:04;;;;;;;18.67;15.25;;;9.80;99.90;;;;;;5135871;27;20223;-65
2022/02/04 04:17:38;;;;;;;19.42;15.48;;;9.80;99.90;;;;;;5135438;27;20306;-65
2022/02/04 04:20:08;;;;;;;21.02;15.45;;;9.80;99.90;;;;;;5135420;27;20234;-65
2022/02/04 04:22:35;;;;;;;21.98;15.32;;;9.80;99.90;;;;;;5124939;27;20222;-65
2022/02/04 04:25:03;;;;;;;20.05;15.77;;;9.80;99.90;;;;;;5135448;27;20237;-65
2022/02/04 04:27:29;;;;;;;18.98;14.75;;;9.80;99.90;;;;;;5135136;27;20620;-65
2022/02/04 04:29:56;;;;;;;20.40;16.42;;;9.80;99.90;;;;;;5135296;27;20693;-65
2022/02/04 04:32:24;;;;;;;19.75;16.27;;;9.80;99.90;;;;;;5134857;27;20226;-64
2022/02/04 04:34:51;;;;;;;23.10;16.70;;;9.80;99.90;;;;;;5135471;27;20558;-66
2022/02/04 04:37:20;;;;;;;18.10;15.52;;;9.90;99.90;;;;;;5135400;27;20665;-64
2022/02/04 04:39:56;;;;;;;19.92;16.45;;;9.80;99.90;;;;;;5135177;27;20302;-64
2022/02/04 04:42:33;;;;;;;17.70;15.48;;;9.80;99.90;;;;;;5120232;27;20226;-65
2022/02/04 04:45:20;;;;;;;19.30;16.45;;;9.80;99.90;;;;;;5130181;27;20222;-64
2022/02/04 05:29:07;;;;;;;19.30;15.63;;;9.80;99.90;;;;;;5080977;27;20222;-64
2022/02/04 05:31:34;;;;;;;21.58;14.60;;;9.80;99.90;;;;;;5128531;27;20225;-64
2022/02/04 05:34:02;;;;;;;19.73;16.23;;;9.80;99.90;;;;;;5133679;27;20218;-64
2022/02/04 05:36:29;;;;;;;20.33;15.73;;;9.80;99.90;;;;;;5134240;27;20235;-64
2022/02/04 05:38:56;;;;;;;19.63;15.48;;;9.80;99.90;;;;;;5133579;27;20375;-64
2022/02/04 05:41:28;;;;;;;18.83;15.43;;;9.80;99.90;;;;;;5133513;27;20234;-64
2022/02/04 05:43:58;;;;;;;18.40;15.40;;;9.80;99.90;;;;;;5134087;27;20270;-65
2022/02/04 05:46:29;;;;;;;19.67;16.75;;;9.80;99.90;;;;;;5133668;27;20214;-65
2022/02/04 05:48:58;;;;;;;21.17;16.05;;;9.80;99.90;;;;;;5133979;27;20214;-65
2022/02/04 05:51:43;;;;;;;21.70;16.65;;;9.80;99.90;;;;;;5128883;27;20226;-65
2022/02/04 05:54:12;;;;;;;18.52;15.68;;;9.80;99.90;;;;;;5129840;27;20284;-64
2022/02/04 05:56:50;;;;;;;23.80;18.05;;;9.80;99.90;;;;;;5132035;27;20260;-64
2022/02/04 05:59:24;;;;;;;20.50;17.10;;;9.80;99.90;;;;;;5133590;27;20222;-64
2022/02/04 06:02:00;;;;;;;18.15;16.20;;;9.80;99.90;;;;;;5133556;27;20218;-64
2022/02/04 06:07:22;;;;;;;18.85;15.55;;;9.80;99.90;;;;;;5133334;27;20563;-65
2022/02/04 06:22:07;;;;;;;18.27;15.18;;;9.80;99.90;;;;;;5133358;27;20250;-65
2022/02/04 06:23:44;;;;;;;20.42;15.73;;;9.80;99.90;;;;;;5127586;27;20240;-65
2022/02/04 06:26:10;;;;;;;18.50;16.10;;;9.80;99.90;;;;;;5133174;27;20222;-64
2022/02/04 06:28:41;;;;;;;19.40;16.50;;;9.80;99.90;;;;;;5133613;27;20226;-65
2022/02/04 06:31:08;;;;;;;22.83;16.80;;;9.80;99.90;;;;;;5132963;27;20309;-65
2022/02/04 06:33:35;;;;;;;19.48;15.30;;;9.80;99.90;;;;;;5133591;27;20228;-65
2022/02/04 06:36:03;;;;;;;20.90;17.33;;;9.80;99.90;;;;;;5134886;27;20563;-65
2022/02/04 06:38:29;;;;;;;20.63;15.82;;;9.80;99.90;;;;;;5137478;27;20574;-64
2022/02/04 06:40:56;;;;;;;22.65;17.80;;;9.80;99.90;;;;;;5137063;27;20222;-64
2022/02/04 06:43:23;;;;;;;20.80;16.67;;;9.80;99.90;;;;;;5133802;27;20223;-65
2022/02/04 06:45:51;;;;;;;21.38;17.25;;;9.80;99.90;;;;;;5137037;27;20257;-65
2022/02/04 06:48:18;;;;;;;19.17;15.20;;;9.70;99.90;;;;;;5137094;27;20236;-66
2022/02/04 06:50:45;;;;;;;17.95;15.35;;;9.70;99.90;;;;;;5137193;27;20214;-66
2022/02/04 06:53:12;;;;;;;20.77;15.43;;;9.80;99.90;;;;;;5137078;27;20218;-65
2022/02/04 06:55:38;;;;;;;22.33;19.05;;;9.70;99.90;;;;;;5137599;27;20710;-65
2022/02/04 06:58:06;;;;;;;18.40;15.10;;;9.70;99.90;;;;;;5136863;27;20219;-65
2022/02/04 07:00:33;;;;;;;23.08;17.77;;;9.70;99.90;;;;;;5137029;27;20647;-65
2022/02/04 07:03:02;;;;;;;21.00;15.85;;;9.70;99.90;;;;;;5136567;27;20697;-65
2022/02/04 07:05:28;;;;;;;22.35;16.05;;;9.70;99.90;;;;;;5137391;27;20214;-65
2022/02/04 07:08:06;;;;;;;17.80;15.05;;;9.70;99.90;;;;;;5136754;27;20238;-65
2022/02/04 07:10:41;;;;;;;17.58;14.50;;;9.70;99.90;;;;;;5137145;27;20246;-65
2022/02/04 07:13:16;;;;;;;19.65;15.80;;;9.70;99.90;;;;;;5123130;27;20308;-65
2022/02/04 07:21:06;;;;;;;18.52;15.52;;;9.80;99.90;;;;;;5135924;27;20282;-65
2022/02/04 07:23:33;;;;;;;21.60;18.33;;;9.70;99.90;;;;;;5135166;27;20230;-65
2022/02/04 07:26:00;;;;;;;25.20;19.13;;;9.70;99.90;;;;;;5136565;27;20226;-65
2022/02/04 07:28:26;;;;;;;22.13;17.73;;;9.70;99.90;;;;;;5136623;27;20218;-65
2022/02/04 07:30:54;;;;;;;22.35;16.95;;;9.70;99.90;;;;;;5136200;27;20226;-65
2022/02/04 07:33:36;;;;;;;20.48;15.77;;;9.70;99.90;;;;;;5133296;27;20231;-65
2022/02/04 07:40:52;;;;;;;23.13;16.55;;;9.80;99.90;;;;;;5136405;27;20351;-64
2022/02/04 07:41:37;;;;;;;20.50;16.48;;;9.80;99.90;;;;;;5136161;27;20291;-65
2022/02/04 07:44:05;;;;;;;18.90;14.80;;;9.70;99.90;;;;;;5134714;27;20226;-64
2022/02/04 07:46:32;;;;;;;20.33;14.80;;;9.70;99.90;;;;;;5121987;27;20486;-64
2022/02/04 07:49:00;;;;;;;17.30;14.52;;;9.70;99.90;;;;;;5128394;27;20219;-64
2022/02/04 07:51:27;;;;;;;17.58;13.38;;;9.60;99.90;;;;;;5133156;27;20222;-65
2022/02/04 07:53:54;;;;;;;16.02;13.85;;;9.60;99.90;;;;;;5135715;27;20233;-65
2022/02/04 07:56:23;;;;;;;16.42;13.00;;;9.60;99.90;;;;;;5136231;27;20256;-65
2022/02/04 07:58:56;;;;;;;16.30;13.05;;;9.60;99.90;;;;;;5130403;27;20413;-65
2022/02/04 08:01:27;;;;;;;14.23;12.73;;;9.60;99.90;;;;;;5136035;27;20569;-65
2022/02/04 08:04:00;;;;;;;15.68;12.43;;;9.60;99.90;;;;;;5135810;27;20230;-65
2022/02/04 08:06:31;;;;;;;15.32;12.55;;;9.60;99.90;;;;;;5136157;27;20222;-65
2022/02/04 08:09:05;;;;;;;14.70;13.20;;;9.70;99.90;;;;;;5135738;27;20573;-64
2022/02/04 08:14:35;;;;;;;15.48;12.90;;;9.70;99.90;;;;;;5113795;27;20222;-66
2022/02/04 08:17:27;;;;;;;15.02;11.90;;;9.80;99.90;;;;;;5135770;27;20248;-66
2022/02/04 08:31:30;;;;;;;17.77;14.05;;;9.80;99.90;;;;;;5117776;27;20230;-67
2022/02/04 08:37:11;;;;;;;15.38;11.98;;;9.70;99.90;;;;;;5135443;27;20222;-67
2022/02/04 08:51:00;;;;;;;16.55;14.65;;;9.90;99.90;;;;;;5133925;27;20223;-67
2022/02/04 08:53:53;;;;;;;395.25;263.38;;;9.80;99.90;;;;;;5134308;27;20229;-67
2022/02/04 08:56:33;;;;;;;15.48;13.77;;;10.30;99.90;;;;;;5121062;27;20238;-67
2022/02/04 08:59:07;;;;;;;21.88;17.38;;;10.90;99.90;;;;;;5130280;27;20230;-67
2022/02/04 09:01:39;;;;;;;15.60;13.95;;;11.00;99.90;;;;;;5134283;27;20241;-67
2022/02/04 09:04:09;;;;;;;12.25;10.70;;;11.10;99.90;;;;;;5135022;27;20222;-67
2022/02/04 09:06:40;;;;;;;10.40;9.32;;;11.10;99.90;;;;;;5134333;27;20233;-66
2022/02/04 09:09:13;;;;;;;12.50;10.23;;;11.00;99.90;;;;;;5134494;27;20222;-67
2022/02/04 09:11:45;;;;;;;11.05;9.90;;;11.00;99.90;;;;;;5133722;27;20272;-67
2022/02/04 09:17:09;;;;;;;8.65;7.72;;;10.90;99.90;;;;;;5135181;27;20217;-66
2022/02/04 09:20:00;;;;;;;10.13;8.88;;;10.90;99.90;;;;;;5128843;27;20700;-65
2022/02/04 09:22:40;;;;;;;246.82;160.23;;;10.80;99.90;;;;;;5123289;27;20215;-66
2022/02/04 09:25:08;;;;;;;15.38;11.50;;;11.30;99.90;;;;;;5134501;27;20229;-66
2022/02/04 09:27:37;;;;;;;9.10;8.20;;;11.70;99.90;;;;;;5134079;27;20698;-66
2022/02/04 09:30:06;;;;;;;9.23;8.27;;;11.70;99.90;;;;;;5133804;27;20223;-66
2022/02/04 09:32:34;;;;;;;12.02;8.02;;;11.50;99.90;;;;;;5133707;27;20222;-66
2022/02/04 09:35:02;;;;;;;11.45;7.53;;;11.50;99.90;;;;;;5134555;27;20275;-66
2022/02/04 09:37:29;;;;;;;8.10;7.40;;;11.30;99.90;;;;;;5133703;27;20226;-66
2022/02/04 09:39:56;;;;;;;8.15;7.35;;;11.20;99.90;;;;;;5134230;27;20229;-66
2022/02/04 09:42:23;;;;;;;8.88;8.05;;;11.10;99.90;;;;;;5133374;27;20218;-66
2022/02/04 09:44:51;;;;;;;11.07;8.73;;;11.00;99.90;;;;;;5121329;27;20214;-66
2022/02/04 09:47:19;;;;;;;11.90;9.80;;;11.00;99.90;;;;;;5134170;27;20229;-66
2022/02/04 09:49:51;;;;;;;11.40;8.82;;;10.80;99.90;;;;;;5133676;27;20218;-66
2022/02/04 10:15:07;;;;;;;104.88;73.45;;;10.50;99.90;;;;;;5133457;27;20226;-66
2022/02/04 10:17:39;;;;;;;128.48;91.82;;;10.90;99.90;;;;;;5133782;27;20225;-66
2022/02/04 10:20:08;;;;;;;104.07;74.07;;;11.40;99.90;;;;;;5133603;27;20277;-66
2022/02/04 10:22:35;;;;;;;28.15;22.38;;;12.10;99.90;;;;;;5121291;27;20222;-66
2022/02/04 10:25:04;;;;;;;14.75;12.45;;;12.70;99.90;;;;;;5133810;27;20226;-66
2022/02/04 10:27:33;;;;;;;17.35;15.52;;;12.80;99.90;;;;;;5133599;27;20232;-65
2022/02/04 10:30:01;;;;;;;19.63;16.02;;;12.80;99.90;;;;;;5133158;27;20222;-65
2022/02/04 10:32:41;;;;;;;13.52;11.63;;;12.70;99.90;;;;;;5133389;27;20245;-67
2022/02/04 10:35:13;;;;;;;12.70;10.57;;;12.50;99.90;;;;;;5133139;27;20672;-66
2022/02/04 10:37:44;;;;;;;11.48;9.60;;;12.30;99.90;;;;;;5132823;27;20232;-66
2022/02/04 10:40:42;;;;;;;11.27;8.80;;;12.00;99.90;;;;;;5120877;27;20237;-66
2022/02/04 10:43:26;;;;;;;16.90;12.95;;;11.80;99.90;;;;;;5129064;27;20283;-65
2022/02/04 10:46:11;;;;;;;12.25;10.73;;;11.60;99.90;;;;;;5127135;27;20251;-65
2022/02/04 10:48:57;;;;;;;10.88;9.77;;;11.40;99.90;;;;;;5133528;27;20739;-67
2022/02/04 10:51:59;;;;;;;11.48;10.05;;;11.20;99.90;;;;;;5129955;27;20218;-67
2022/02/04 10:57:29;;;;;;;20.90;16.85;;;11.00;99.90;;;;;;5106319;27;20262;-66
2022/02/04 11:00:17;;;;;;;19.02;13.65;;;10.90;99.90;;;;;;5133422;27;20617;-67
2022/02/04 11:02:57;;;;;;;14.07;12.05;;;10.80;99.90;;;;;;5133337;27;20222;-66
2022/02/04 11:05:33;;;;;;;12.93;10.30;;;10.80;99.90;;;;;;5133555;27;20661;-66
2022/02/04 11:33:43;;;;;;;9.77;8.32;;;10.60;99.90;;;;;;5136211;27;20593;-66
2022/02/04 11:35:59;;;;;;;52.45;38.47;;;10.60;99.90;;;;;;5127707;27;20949;-66
2022/02/04 11:47:54;;;;;;;7.90;7.07;;;10.80;99.90;;;;;;5125265;27;20284;-67
2022/02/04 11:52:51;;;;;;;9.80;8.90;;;10.90;99.90;;;;;;5071845;28;20224;-66
2022/02/04 11:55:40;;;;;;;8.25;7.38;;;11.00;99.90;;;;;;5073228;28;20236;-66
2022/02/04 11:58:07;;;;;;;11.55;10.45;;;11.00;99.90;;;;;;5097946;27;20214;-67
2022/02/04 12:00:39;;;;;;;12.02;10.73;;;10.90;99.90;;;;;;5135344;27;20222;-67
2022/02/04 12:03:36;;;;;;;10.63;9.52;;;10.90;99.90;;;;;;5136144;27;20573;-66
2022/02/04 12:06:04;;;;;;;10.23;8.43;;;11.00;99.90;;;;;;5123029;27;20218;-66
2022/02/04 12:08:31;;;;;;;9.32;8.05;;;11.00;99.90;;;;;;5135793;27;20244;-66
2022/02/04 12:11:03;;;;;;;11.43;10.35;;;11.00;99.90;;;;;;5135327;27;20322;-66
2022/02/04 12:13:30;;;;;;;10.60;8.88;;;11.00;99.90;;;;;;5135752;27;20683;-66
2022/02/04 12:16:04;;;;;;;9.07;8.18;;;11.00;99.90;;;;;;5130665;27;20215;-66
2022/02/04 12:19:09;;;;;;;8.85;7.15;;;11.10;99.90;;;;;;5128802;27;20222;-66
2022/02/04 12:21:50;;;;;;;8.95;7.63;;;11.00;99.90;;;;;;5122087;27;20221;-66
2022/02/04 12:24:36;;;;;;;8.52;7.30;;;11.10;99.90;;;;;;5122659;27;20222;-66
2022/02/04 12:27:48;;;;;;;9.32;7.88;;;11.10;99.90;;;;;;5135363;27;20937;-67
2022/02/04 12:30:46;;;;;;;6.80;6.10;;;11.10;99.90;;;;;;5131735;27;20222;-67
2022/02/04 12:33:16;;;;;;;8.27;6.25;;;11.10;99.90;;;;;;5134857;27;20253;-66
2022/02/04 12:35:43;;;;;;;9.20;6.75;;;11.10;99.90;;;;;;5135569;27;20210;-66
2022/02/04 12:38:09;;;;;;;7.72;7.00;;;11.10;99.90;;;;;;5134720;27;20218;-67
2022/02/04 12:40:36;;;;;;;6.60;6.00;;;11.10;99.90;;;;;;5135242;27;20226;-66
2022/02/04 12:43:04;;;;;;;8.18;7.32;;;11.20;99.90;;;;;;5132516;27;20246;-67
2022/02/04 12:45:30;;;;;;;9.68;8.65;;;11.20;99.90;;;;;;5135247;27;20616;-66
2022/02/04 12:48:07;;;;;;;9.30;8.50;;;11.20;99.90;;;;;;5135076;27;20223;-65
2022/02/04 12:50:34;;;;;;;10.48;9.30;;;11.10;99.90;;;;;;5134498;27;20657;-65
2022/02/04 12:53:01;;;;;;;8.63;7.78;;;11.10;99.90;;;;;;5134751;27;20306;-66
2022/02/04 12:55:37;;;;;;;6.45;5.85;;;11.00;99.90;;;;;;5134518;27;20684;-66
2022/02/04 12:58:15;;;;;;;11.35;10.13;;;11.00;99.90;;;;;;5134905;27;20238;-66
2022/02/04 13:07:29;;;;;;;5.85;5.15;;;11.10;99.90;;;;;;5122978;27;20248;-66
2022/02/04 13:09:48;;;;;;;7.43;6.38;;;11.10;99.90;;;;;;5134645;27;20225;-66
2022/02/04 13:12:08;;;;;;;14.25;10.85;;;11.10;99.90;;;;;;5134250;27;20621;-66
2022/02/04 13:14:35;;;;;;;7.95;7.13;;;11.20;99.90;;;;;;5121239;27;20297;-66
2022/02/04 13:17:02;;;;;;;8.07;5.60;;;11.20;99.90;;;;;;5133948;27;20688;-66
2022/02/04 13:19:31;;;;;;;7.25;5.80;;;11.30;99.90;;;;;;5134510;27;20225;-66
2022/02/04 13:21:58;;;;;;;5.30;4.80;;;11.30;99.90;;;;;;5127619;27;20559;-66
2022/02/04 13:24:25;;;;;;;4.20;3.80;;;11.20;99.90;;;;;;5134238;27;20218;-66
2022/02/04 13:26:52;;;;;;;5.65;4.97;;;11.30;99.90;;;;;;5134289;27;20676;-66
2022/02/04 13:29:26;;;;;;;4.85;4.40;;;11.20;99.90;;;;;;5133805;27;20301;-66
2022/02/04 13:31:53;;;;;;;6.25;5.65;;;11.20;99.90;;;;;;5130622;27;20222;-67
2022/02/04 13:34:26;;;;;;;5.07;4.57;;;11.30;99.90;;;;;;5133733;27;20313;-67
2022/02/04 13:37:01;;;;;;;5.53;5.03;;;11.10;99.90;;;;;;5134189;27;20222;-67
2022/02/04 13:39:37;;;;;;;5.60;4.30;;;11.10;99.90;;;;;;5133799;27;20980;-66
2022/02/04 13:42:12;;;;;;;5.82;5.35;;;11.10;99.90;;;;;;5120162;27;20226;-67
2022/02/04 13:44:46;;;;;;;7.22;4.72;;;11.10;99.90;;;;;;5131363;27;20214;-66
2022/02/04 13:47:24;;;;;;;4.93;4.50;;;11.20;99.90;;;;;;5133670;27;20298;-66
2022/02/04 13:55:49;;;;;;;5.72;5.13;;;11.20;99.90;;;;;;5133712;27;20238;-66
2022/02/04 13:58:27;;;;;;;5.65;5.13;;;11.10;99.90;;;;;;5133571;27;20222;-66
2022/02/04 14:01:02;;;;;;;5.85;5.13;;;11.10;99.90;;;;;;5133156;27;20248;-65
2022/02/04 14:03:34;;;;;;;6.22;5.63;;;11.10;99.90;;;;;;5133776;27;20301;-66
2022/02/04 14:06:05;;;;;;;5.25;4.80;;;11.10;99.90;;;;;;5120433;27;20226;-66
2022/02/04 14:08:45;;;;;;;5.85;5.18;;;11.00;99.90;;;;;;5133508;27;20214;-65
2022/02/04 14:11:12;;;;;;;6.00;5.45;;;11.10;99.90;;;;;;5133183;27;20238;-66
2022/02/04 14:13:39;;;;;;;7.97;7.18;;;11.10;99.90;;;;;;5126477;27;20222;-66
2022/02/04 14:16:07;;;;;;;4.20;3.85;;;11.20;99.90;;;;;;5123619;27;20215;-67
2022/02/04 14:18:38;;;;;;;5.55;4.32;;;11.20;99.90;;;;;;5118059;27;20567;-66
2022/02/04 14:21:08;;;;;;;5.28;4.78;;;11.20;99.90;;;;;;5124508;27;20253;-66
2022/02/04 14:23:36;;;;;;;3.75;3.40;;;11.30;99.90;;;;;;5127499;27;20215;-65
2022/02/04 14:26:09;;;;;;;4.47;4.07;;;11.30;99.90;;;;;;5116706;27;20675;-66
2022/02/04 14:28:42;;;;;;;7.90;4.15;;;11.30;99.90;;;;;;5129496;27;20222;-66
2022/02/04 14:31:16;;;;;;;4.32;3.92;;;11.30;99.90;;;;;;5129597;27;20233;-66
2022/02/04 14:36:51;;;;;;;5.28;4.40;;;11.40;99.90;;;;;;5130133;27;20723;-66
2022/02/04 14:53:05;;;;;;;5.38;3.85;;;11.50;99.90;;;;;;5116914;27;20220;-65
2022/02/04 14:58:44;;;;;;;4.80;3.70;;;11.50;99.90;;;;;;5132403;27;20292;-66
2022/02/04 15:01:17;;;;;;;4.22;3.83;;;11.50;99.90;;;;;;5135382;27;20253;-66
2022/02/04 15:03:53;;;;;;;5.57;4.50;;;11.50;99.90;;;;;;5120897;27;20223;-66
2022/02/04 15:06:27;;;;;;;3.60;3.30;;;11.50;99.90;;;;;;5130145;27;20309;-67
2022/02/04 15:08:55;;;;;;;2.78;2.53;;;11.50;99.90;;;;;;5130269;27;20215;-66
2022/02/04 15:11:30;;;;;;;3.17;2.97;;;11.50;99.90;;;;;;5116239;27;20230;-66
2022/02/04 15:13:58;;;;;;;4.18;3.10;;;11.50;99.90;;;;;;5132882;27;20318;-66
2022/02/04 15:16:26;;;;;;;2.75;2.55;;;11.40;99.90;;;;;;5134997;27;20238;-66
2022/02/04 15:18:56;;;;;;;3.22;2.85;;;11.40;99.90;;;;;;5134300;27;20236;-67
2022/02/04 15:21:25;;;;;;;2.92;2.55;;;11.30;99.90;;;;;;5132063;27;20225;-67
2022/02/04 15:23:54;;;;;;;5.13;4.63;;;11.20;99.90;;;;;;5135019;27;20285;-67
2022/02/04 15:26:28;;;;;;;4.40;3.83;;;11.20;99.90;;;;;;5134661;27;20245;-65
2022/02/04 15:29:00;;;;;;;3.38;2.60;;;11.30;99.90;;;;;;5132979;27;20254;-68
2022/02/04 15:31:38;;;;;;;2.85;2.47;;;11.30;99.90;;;;;;5128848;27;20293;-68
2022/02/04 15:34:12;;;;;;;5.25;2.67;;;11.30;99.90;;;;;;5125903;27;20221;-67
2022/02/04 15:36:47;;;;;;;7.60;4.22;;;11.30;99.90;;;;;;5129671;27;20215;-67
2022/02/04 15:39:20;;;;;;;3.65;3.00;;;11.30;99.90;;;;;;5117725;27;20786;-67
2022/02/04 15:41:54;;;;;;;3.38;1.90;;;11.40;99.90;;;;;;5122441;27;20275;-67
2022/02/04 15:44:36;;;;;;;2.60;2.40;;;11.30;99.90;;;;;;5118627;27;20267;-68
2022/02/04 15:52:53;;;;;;;6.88;5.78;;;11.30;99.90;;;;;;5131005;27;20279;-68
2022/02/04 15:58:25;;;;;;;4.22;3.20;;;11.30;99.90;;;;;;5119357;27;20530;-67
2022/02/04 16:01:13;;;;;;;2.78;2.08;;;11.30;99.90;;;;;;5132473;27;20230;-66
2022/02/04 16:03:56;;;;;;;2.00;1.70;;;11.30;99.90;;;;;;5133171;27;20584;-67
2022/02/04 16:06:24;;;;;;;1.98;1.40;;;11.30;99.90;;;;;;5134619;27;20578;-68
2022/02/04 16:08:55;;;;;;;6.00;3.70;;;11.30;99.90;;;;;;5121732;27;20219;-68
2022/02/04 16:11:34;;;;;;;4.38;3.75;;;11.30;99.90;;;;;;5133896;27;20226;-68
2022/02/04 16:14:17;;;;;;;7.60;6.85;;;11.30;99.90;;;;;;5126936;27;20230;-66
2022/02/04 16:16:48;;;;;;;13.18;11.65;;;11.20;99.90;;;;;;5135167;27;20232;-66
2022/02/04 16:19:27;;;;;;;10.00;8.40;;;11.30;99.90;;;;;;5129643;27;20215;-66
2022/02/04 16:22:10;;;;;;;7.32;5.05;;;11.30;99.90;;;;;;5131758;27;20246;-67
2022/02/04 16:25:06;;;;;;;2.15;1.95;;;11.30;99.90;;;;;;5131920;27;20317;-67
2022/02/04 16:30:22;;;;;;;1.70;1.60;;;11.30;99.90;;;;;;5125280;27;20552;-67
2022/02/04 16:32:49;;;;;;;1.60;1.50;;;11.30;99.90;;;;;;5128792;27;20299;-67
2022/02/04 16:35:16;;;;;;;1.95;1.20;;;11.30;99.90;;;;;;5135260;27;20226;-67
2022/02/04 16:37:50;;;;;;;1.38;1.08;;;11.30;99.90;;;;;;5129912;27;20587;-68
2022/02/04 16:40:19;;;;;;;6.85;4.88;;;11.30;99.90;;;;;;5123888;27;20621;-68
2022/02/04 16:42:47;;;;;;;1.40;1.30;;;11.20;99.90;;;;;;5133732;27;20238;-69
2022/02/04 16:45:14;;;;;;;5.40;3.15;;;11.10;99.90;;;;;;5123059;27;20223;-67
2022/02/04 16:47:42;;;;;;;2.10;1.67;;;11.10;99.90;;;;;;5125066;27;20229;-65
2022/02/04 16:50:09;;;;;;;1.50;1.38;;;11.00;99.90;;;;;;5132926;27;20236;-64
2022/02/04 16:52:36;;;;;;;3.05;1.33;;;11.00;99.90;;;;;;5132451;27;20222;-63
2022/02/04 16:55:05;;;;;;;2.42;1.60;;;11.00;99.90;;;;;;5133821;27;20232;-64
2022/02/04 16:57:32;;;;;;;1.35;1.25;;;11.00;99.90;;;;;;5121890;27;20703;-64
2022/02/04 17:00:08;;;;;;;2.85;1.42;;;10.90;99.90;;;;;;5128598;27;20249;-64
2022/02/04 17:02:35;;;;;;;2.17;1.50;;;10.90;99.90;;;;;;5128780;27;20223;-64
2022/02/04 17:05:04;;;;;;;1.17;1.08;;;10.80;99.90;;;;;;5113098;27;20246;-65
2022/02/04 17:07:35;;;;;;;1.33;1.20;;;10.90;99.90;;;;;;5115528;27;20221;-64
2022/02/04 17:10:03;;;;;;;1.58;1.38;;;10.80;99.90;;;;;;5130245;27;20262;-63
2022/02/04 17:12:40;;;;;;;2.28;1.75;;;10.80;99.90;;;;;;5129904;27;20661;-65
2022/02/04 17:15:08;;;;;;;1.60;1.50;;;10.90;99.90;;;;;;5120504;27;20219;-64
2022/02/04 17:17:35;;;;;;;1.52;1.42;;;10.80;99.90;;;;;;5139499;27;20229;-64
2022/02/04 17:20:08;;;;;;;1.25;1.15;;;10.90;99.90;;;;;;5124580;27;20229;-64
2022/02/04 17:22:37;;;;;;;1.50;1.40;;;10.80;99.90;;;;;;5126343;27;20211;-64
2022/02/04 17:25:08;;;;;;;1.70;1.60;;;10.90;99.90;;;;;;5127686;27;20242;-64
2022/02/04 17:27:36;;;;;;;7.32;6.45;;;10.90;99.90;;;;;;5128857;27;20214;-63
2022/02/04 17:30:04;;;;;;;6.63;5.80;;;11.00;99.90;;;;;;5131394;27;20227;-64
2022/02/04 17:32:31;;;;;;;5.40;4.57;;;10.90;99.90;;;;;;5127336;27;20672;-64
2022/02/04 17:34:58;;;;;;;3.25;2.95;;;11.00;99.90;;;;;;5131069;27;20685;-64
2022/02/04 17:37:26;;;;;;;3.70;1.80;;;11.00;99.90;;;;;;5133530;27;20222;-63
2022/02/04 17:39:55;;;;;;;2.05;1.85;;;11.00;99.90;;;;;;5128846;27;20225;-65